Time;durP1;ratioP1;P1;durP2;ratioP2;P2;SDS_P1;SDS_P2;PMS_P1;PMS_P2;Temp;Humidity;BMP_temperature;BMP_pressure;BME280_temperature;BME280_humidity;BME280_pressure;Samples;Min_cycle;Max_cycle;Signal;HPM_P1;HPM_P2
2021/08/21 00:02:00;;;;;;;3.40;2.03;;;18.60;76.90;;;;;;5024345;28;21038;-45
2021/08/21 00:04:27;;;;;;;2.60;2.20;;;18.60;77.00;;;;;;5023982;28;20460;-45
2021/08/21 00:06:54;;;;;;;5.00;2.43;;;18.60;77.10;;;;;;5025545;28;20859;-45
2021/08/21 00:09:23;;;;;;;1.93;1.73;;;18.50;77.00;;;;;;5023635;28;20504;-45
2021/08/21 00:11:50;;;;;;;2.87;2.30;;;18.50;77.10;;;;;;5025838;28;20467;-45
2021/08/21 00:14:16;;;;;;;2.63;2.30;;;18.50;77.20;;;;;;5023629;28;20468;-45
2021/08/21 00:16:45;;;;;;;2.63;1.80;;;18.40;77.30;;;;;;5020676;28;20513;-45
2021/08/21 00:19:15;;;;;;;3.97;1.80;;;18.40;77.30;;;;;;5024645;28;20455;-45
2021/08/21 00:21:41;;;;;;;2.90;2.60;;;18.40;77.30;;;;;;5024886;28;20474;-45
2021/08/21 00:24:08;;;;;;;6.43;2.03;;;18.40;77.30;;;;;;5028049;28;20450;-45
2021/08/21 00:26:35;;;;;;;2.20;2.00;;;18.40;77.30;;;;;;5029644;28;20991;-45
2021/08/21 00:29:02;;;;;;;5.80;2.37;;;18.40;77.40;;;;;;5026680;28;20487;-45
2021/08/21 00:31:30;;;;;;;3.20;2.13;;;18.30;77.50;;;;;;5029845;28;20447;-45
2021/08/21 00:33:56;;;;;;;3.50;2.57;;;18.30;77.70;;;;;;5027873;28;20844;-45
2021/08/21 00:36:23;;;;;;;3.70;2.60;;;18.30;77.80;;;;;;5027053;28;20490;-45
2021/08/21 00:38:51;;;;;;;2.90;2.70;;;18.30;77.90;;;;;;5029158;28;20459;-45
2021/08/21 00:41:18;;;;;;;4.63;2.63;;;18.30;78.10;;;;;;5024436;28;20554;-45
2021/08/21 00:43:45;;;;;;;3.40;2.47;;;18.30;78.10;;;;;;5027134;28;20475;-45
2021/08/21 00:46:12;;;;;;;5.60;2.70;;;18.30;78.20;;;;;;5027409;28;20493;-45
2021/08/21 00:48:38;;;;;;;7.90;2.77;;;18.30;78.20;;;;;;5026598;28;20898;-45
2021/08/21 00:51:05;;;;;;;2.10;1.77;;;18.30;78.30;;;;;;5027447;28;20455;-45
2021/08/21 00:53:34;;;;;;;4.17;2.97;;;18.20;78.30;;;;;;5027533;28;20813;-45
2021/08/21 00:56:03;;;;;;;3.10;2.30;;;18.20;78.40;;;;;;5023097;28;20468;-45
2021/08/21 00:58:31;;;;;;;2.63;2.00;;;18.20;78.40;;;;;;5024657;28;20467;-45
2021/08/21 01:00:59;;;;;;;2.43;2.20;;;18.20;78.50;;;;;;5024043;28;20527;-45
2021/08/21 01:03:26;;;;;;;3.03;1.83;;;18.20;78.50;;;;;;5025936;28;20459;-45
2021/08/21 01:05:53;;;;;;;2.37;2.07;;;18.20;78.50;;;;;;5027502;28;20452;-45
2021/08/21 01:08:20;;;;;;;3.00;2.20;;;18.20;78.60;;;;;;5026185;28;20483;-45
2021/08/21 01:10:47;;;;;;;5.40;2.30;;;18.20;78.60;;;;;;5027267;28;20459;-45
2021/08/21 01:13:14;;;;;;;2.30;2.10;;;18.20;78.60;;;;;;5022273;28;20455;-45
2021/08/21 01:15:41;;;;;;;3.63;2.37;;;18.20;78.60;;;;;;5026558;28;20463;-45
2021/08/21 01:18:08;;;;;;;2.57;1.80;;;18.20;78.60;;;;;;5028242;28;20471;-45
2021/08/21 01:20:35;;;;;;;2.27;2.07;;;18.20;78.70;;;;;;5028561;28;20875;-45
2021/08/21 01:23:04;;;;;;;3.03;2.03;;;18.20;78.80;;;;;;5024372;28;20455;-45
2021/08/21 01:25:31;;;;;;;4.50;2.23;;;18.20;78.80;;;;;;5025464;28;20502;-45
2021/08/21 01:27:58;;;;;;;4.40;2.30;;;18.20;78.90;;;;;;5027253;28;20495;-45
2021/08/21 01:30:25;;;;;;;4.00;2.40;;;18.10;79.00;;;;;;5026181;28;20489;-45
2021/08/21 01:32:53;;;;;;;3.40;2.20;;;18.20;79.10;;;;;;5028556;28;20460;-45
2021/08/21 01:35:22;;;;;;;2.57;1.90;;;18.20;79.10;;;;;;5024961;28;20454;-45
2021/08/21 01:37:48;;;;;;;2.47;2.13;;;18.10;79.10;;;;;;5026421;28;20468;-45
2021/08/21 01:40:16;;;;;;;3.33;2.27;;;18.20;79.10;;;;;;5025220;28;20486;-45
2021/08/21 01:42:43;;;;;;;6.03;2.40;;;18.10;79.10;;;;;;5025848;28;20470;-45
2021/08/21 01:45:13;;;;;;;3.80;2.67;;;18.10;79.10;;;;;;5026628;28;20460;-45
2021/08/21 01:47:46;;;;;;;4.03;2.13;;;18.10;79.20;;;;;;5023320;28;20498;-45
2021/08/21 01:50:18;;;;;;;3.50;2.13;;;18.10;79.20;;;;;;5025297;28;20455;-45
2021/08/21 01:52:46;;;;;;;2.50;2.13;;;18.10;79.20;;;;;;5027582;28;20459;-45
2021/08/21 01:55:14;;;;;;;4.07;2.37;;;18.10;79.20;;;;;;5024798;28;20485;-45
2021/08/21 01:57:42;;;;;;;2.53;2.07;;;18.10;79.20;;;;;;5023544;28;20949;-45
2021/08/21 02:00:10;;;;;;;2.10;1.60;;;18.10;79.10;;;;;;5010878;28;21082;-45
2021/08/21 02:02:37;;;;;;;2.77;1.87;;;18.10;79.10;;;;;;5025129;28;20468;-45
2021/08/21 02:05:06;;;;;;;2.90;2.10;;;18.10;79.00;;;;;;5024971;28;20463;-45
2021/08/21 02:07:35;;;;;;;2.17;1.93;;;18.10;79.00;;;;;;5023002;28;20859;-45
2021/08/21 02:10:05;;;;;;;2.70;2.13;;;18.10;79.00;;;;;;5025253;28;20451;-45
2021/08/21 02:12:33;;;;;;;3.50;2.50;;;18.10;78.90;;;;;;5026457;28;20476;-45
2021/08/21 02:15:04;;;;;;;2.80;1.90;;;18.10;78.90;;;;;;5022100;28;20954;-45
2021/08/21 02:17:31;;;;;;;2.43;2.23;;;18.10;78.90;;;;;;5026012;28;20534;-45
2021/08/21 02:20:01;;;;;;;2.73;1.93;;;18.10;79.00;;;;;;5026260;28;20509;-45
2021/08/21 02:22:28;;;;;;;2.23;2.03;;;18.10;79.00;;;;;;5024882;28;20466;-45
2021/08/21 02:24:55;;;;;;;2.90;1.80;;;18.10;79.10;;;;;;5026659;28;20451;-45
2021/08/21 02:27:24;;;;;;;4.03;2.20;;;18.10;79.10;;;;;;5029267;28;20487;-44
2021/08/21 02:29:51;;;;;;;3.27;2.30;;;18.10;79.20;;;;;;5025706;28;20956;-44
2021/08/21 02:32:18;;;;;;;2.30;1.73;;;18.10;79.20;;;;;;5040363;28;20465;-44
2021/08/21 02:34:45;;;;;;;2.20;1.53;;;18.10;79.30;;;;;;5026793;28;21651;-44
2021/08/21 02:37:13;;;;;;;2.70;2.50;;;18.10;79.30;;;;;;5024638;28;20959;-44
2021/08/21 02:39:40;;;;;;;2.30;1.87;;;18.10;79.40;;;;;;5027026;28;21018;-44
2021/08/21 02:42:07;;;;;;;2.37;2.10;;;18.10;79.40;;;;;;5022683;28;20458;-44
2021/08/21 02:44:34;;;;;;;4.00;2.27;;;18.10;79.40;;;;;;5023651;28;20459;-44
2021/08/21 02:47:01;;;;;;;2.80;2.50;;;18.10;79.30;;;;;;5024690;28;20474;-44
2021/08/21 02:49:27;;;;;;;2.20;2.00;;;18.00;79.40;;;;;;5037757;28;20998;-44
2021/08/21 02:51:54;;;;;;;3.13;2.00;;;18.00;79.40;;;;;;5023783;28;20832;-44
2021/08/21 02:54:21;;;;;;;2.77;2.13;;;18.00;79.50;;;;;;5024151;28;20487;-44
2021/08/21 02:56:47;;;;;;;5.83;2.30;;;18.00;79.60;;;;;;5021596;28;20463;-45
2021/08/21 02:59:14;;;;;;;2.60;2.40;;;18.00;79.70;;;;;;5026122;28;20488;-45
2021/08/21 03:01:41;;;;;;;3.67;2.60;;;18.00;79.80;;;;;;5024158;28;20467;-45
2021/08/21 03:04:07;;;;;;;3.53;2.37;;;18.00;79.90;;;;;;5025744;28;20459;-45
2021/08/21 03:06:34;;;;;;;2.77;2.57;;;17.90;80.00;;;;;;5025831;28;20496;-45
2021/08/21 03:09:02;;;;;;;2.87;2.17;;;17.90;80.10;;;;;;5024171;28;20488;-45
2021/08/21 03:11:29;;;;;;;2.67;2.47;;;17.90;80.20;;;;;;5023821;28;20460;-45
2021/08/21 03:13:55;;;;;;;2.70;2.30;;;17.90;80.20;;;;;;5023010;28;20463;-45
2021/08/21 03:16:22;;;;;;;2.70;2.33;;;17.90;80.30;;;;;;5026173;28;21002;-45
2021/08/21 03:18:49;;;;;;;2.53;1.93;;;17.90;80.30;;;;;;5025843;28;20501;-45
2021/08/21 03:21:16;;;;;;;3.03;2.83;;;17.90;80.30;;;;;;5026827;28;20491;-45
2021/08/21 03:23:43;;;;;;;3.77;3.40;;;17.90;80.30;;;;;;5022412;28;20474;-45
2021/08/21 03:26:10;;;;;;;3.20;2.90;;;17.90;80.30;;;;;;5026139;28;20455;-45
2021/08/21 03:28:36;;;;;;;4.27;2.80;;;17.90;80.40;;;;;;5025235;28;20568;-44
2021/08/21 03:31:03;;;;;;;3.53;3.20;;;17.80;80.40;;;;;;5020833;28;20470;-44
2021/08/21 03:33:30;;;;;;;2.87;2.57;;;17.80;80.40;;;;;;5025509;28;20871;-44
2021/08/21 03:35:56;;;;;;;3.27;2.73;;;17.80;80.40;;;;;;5024211;28;20466;-44
2021/08/21 03:38:23;;;;;;;3.73;2.60;;;17.80;80.40;;;;;;5024748;28;20471;-44
2021/08/21 03:40:50;;;;;;;3.93;2.70;;;17.80;80.40;;;;;;5022753;28;20474;-44
2021/08/21 03:43:17;;;;;;;3.00;2.70;;;17.70;80.60;;;;;;5023773;28;20465;-44
2021/08/21 03:45:46;;;;;;;3.97;3.03;;;17.70;80.70;;;;;;5025561;28;20490;-44
2021/08/21 03:48:13;;;;;;;2.73;2.53;;;17.70;80.70;;;;;;5026279;28;20480;-44
2021/08/21 03:50:40;;;;;;;3.30;2.63;;;17.70;80.80;;;;;;5022704;28;20452;-44
2021/08/21 03:53:06;;;;;;;2.43;2.23;;;17.60;80.90;;;;;;5024008;28;20961;-44
2021/08/21 03:55:33;;;;;;;3.20;2.90;;;17.60;81.00;;;;;;5026324;28;20455;-44
2021/08/21 03:58:00;;;;;;;4.03;2.90;;;17.60;81.00;;;;;;5026755;28;20465;-44
2021/08/21 04:00:27;;;;;;;2.50;2.30;;;17.50;81.10;;;;;;5028745;28;20959;-44
2021/08/21 04:02:54;;;;;;;2.90;2.70;;;17.50;81.30;;;;;;5029863;28;20561;-44
2021/08/21 04:05:21;;;;;;;2.90;2.50;;;17.50;81.30;;;;;;5024820;28;20459;-44
2021/08/21 04:07:48;;;;;;;3.13;2.20;;;17.50;81.20;;;;;;5029060;28;20546;-44
2021/08/21 04:10:15;;;;;;;5.00;2.73;;;17.50;81.10;;;;;;5029541;28;20517;-44
2021/08/21 04:12:43;;;;;;;4.43;2.93;;;17.50;81.10;;;;;;5025590;28;20791;-45
2021/08/21 04:15:10;;;;;;;6.47;2.23;;;17.50;81.10;;;;;;5026599;28;20459;-45
2021/08/21 04:17:37;;;;;;;2.83;2.40;;;17.50;81.10;;;;;;5030113;28;20462;-45
2021/08/21 04:20:04;;;;;;;2.47;2.27;;;17.50;81.20;;;;;;5027445;28;20800;-45
2021/08/21 04:22:31;;;;;;;5.20;3.07;;;17.50;81.30;;;;;;5043644;28;20462;-45
2021/08/21 04:24:58;;;;;;;2.70;2.50;;;17.40;81.40;;;;;;5029965;28;20459;-45
2021/08/21 04:27:25;;;;;;;3.27;2.90;;;17.40;81.50;;;;;;5026275;28;20909;-45
2021/08/21 04:29:52;;;;;;;3.30;2.83;;;17.40;81.60;;;;;;5028080;28;20850;-45
2021/08/21 04:32:19;;;;;;;3.07;2.77;;;17.40;81.70;;;;;;5045596;28;20460;-45
2021/08/21 04:34:45;;;;;;;3.23;2.93;;;17.40;81.90;;;;;;5027798;28;20455;-45
2021/08/21 04:37:12;;;;;;;3.47;3.17;;;17.50;81.90;;;;;;5028936;28;20539;-45
2021/08/21 04:39:39;;;;;;;3.20;2.90;;;17.40;82.00;;;;;;5028684;28;20501;-45
2021/08/21 04:42:06;;;;;;;4.83;2.97;;;17.50;82.10;;;;;;5027855;28;20459;-45
2021/08/21 04:44:32;;;;;;;3.50;3.10;;;17.50;82.20;;;;;;5028489;28;20459;-45
2021/08/21 04:46:59;;;;;;;3.60;2.90;;;17.50;82.30;;;;;;5028770;28;20466;-45
2021/08/21 04:49:26;;;;;;;4.70;2.80;;;17.50;82.30;;;;;;5028620;28;20673;-45
2021/08/21 04:51:56;;;;;;;4.40;3.13;;;17.60;82.40;;;;;;5029235;28;20452;-45
2021/08/21 04:54:23;;;;;;;5.10;3.63;;;17.60;82.30;;;;;;5027100;28;20467;-45
2021/08/21 04:56:50;;;;;;;5.30;2.93;;;17.70;82.30;;;;;;5027324;28;20466;-45
2021/08/21 04:59:16;;;;;;;3.70;3.17;;;17.70;82.30;;;;;;5027572;28;20539;-45
2021/08/21 05:01:43;;;;;;;5.10;3.60;;;17.80;81.90;;;;;;5027423;28;20459;-45
2021/08/21 05:04:10;;;;;;;4.43;3.53;;;17.80;81.70;;;;;;5044741;28;20459;-45
2021/08/21 05:06:37;;;;;;;5.13;3.30;;;17.90;81.60;;;;;;5028911;28;20473;-45
2021/08/21 05:09:04;;;;;;;5.10;3.87;;;17.90;81.60;;;;;;5027478;28;20475;-45
2021/08/21 05:11:31;;;;;;;6.70;3.77;;;17.90;81.60;;;;;;5028555;28;20455;-45
2021/08/21 05:13:58;;;;;;;3.10;2.90;;;18.00;81.60;;;;;;5029874;28;20451;-45
2021/08/21 05:16:25;;;;;;;5.13;3.93;;;18.00;81.60;;;;;;5024779;28;20950;-45
2021/08/21 05:19:01;;;;;;;3.27;2.70;;;18.10;81.60;;;;;;5030024;28;20467;-45
2021/08/21 05:21:30;;;;;;;2.87;2.67;;;18.10;81.40;;;;;;5029322;28;20624;-45
2021/08/21 05:23:57;;;;;;;3.43;3.00;;;18.10;81.20;;;;;;5008524;28;21010;-45
2021/08/21 05:26:25;;;;;;;3.67;3.27;;;18.20;81.30;;;;;;5026551;28;20456;-45
2021/08/21 05:28:52;;;;;;;3.70;3.00;;;18.20;81.30;;;;;;5024712;28;20493;-44
2021/08/21 05:31:19;;;;;;;4.10;3.00;;;18.20;81.10;;;;;;5025008;28;20459;-45
2021/08/21 05:33:46;;;;;;;5.10;3.00;;;18.30;80.90;;;;;;5028595;28;20562;-45
2021/08/21 05:36:13;;;;;;;3.90;3.00;;;18.30;80.50;;;;;;5026867;28;20539;-45
2021/08/21 05:38:40;;;;;;;3.90;2.70;;;18.30;80.40;;;;;;5028694;28;20460;-45
2021/08/21 05:41:07;;;;;;;5.03;2.80;;;18.40;80.30;;;;;;5026377;28;20506;-45
2021/08/21 05:43:33;;;;;;;3.60;2.93;;;18.50;80.00;;;;;;5025656;28;20999;-45
2021/08/21 05:46:00;;;;;;;3.00;2.70;;;18.50;79.90;;;;;;5024312;28;20910;-45
2021/08/21 05:48:28;;;;;;;6.93;3.20;;;18.50;79.90;;;;;;5026000;28;20455;-45
2021/08/21 05:50:54;;;;;;;3.03;2.77;;;18.50;80.00;;;;;;5022932;28;20460;-45
2021/08/21 05:53:21;;;;;;;3.67;2.90;;;18.60;79.90;;;;;;5028332;28;20462;-45
2021/08/21 05:55:48;;;;;;;3.40;2.70;;;18.60;80.00;;;;;;5025091;28;20458;-45
2021/08/21 05:58:15;;;;;;;3.70;3.00;;;18.60;80.00;;;;;;5025549;28;20467;-45
2021/08/21 06:00:41;;;;;;;3.37;2.83;;;18.60;79.60;;;;;;5026287;28;20451;-45
2021/08/21 06:03:08;;;;;;;4.20;3.07;;;18.70;79.40;;;;;;5027198;28;21070;-45
2021/08/21 06:05:37;;;;;;;3.43;3.13;;;18.70;79.40;;;;;;5027811;28;20465;-45
2021/08/21 06:08:14;;;;;;;3.90;2.73;;;18.70;79.40;;;;;;5028591;28;20458;-45
2021/08/21 06:10:41;;;;;;;3.00;2.60;;;18.70;79.40;;;;;;5024874;28;20542;-45
2021/08/21 06:13:09;;;;;;;3.47;3.00;;;18.80;79.60;;;;;;5027406;28;20459;-45
2021/08/21 06:15:35;;;;;;;3.20;2.90;;;18.80;79.20;;;;;;5022747;28;21005;-45
2021/08/21 06:18:03;;;;;;;3.20;2.90;;;18.90;78.50;;;;;;5026779;28;20470;-45
2021/08/21 06:20:30;;;;;;;3.27;2.97;;;18.90;78.70;;;;;;5023487;28;20473;-45
2021/08/21 06:22:57;;;;;;;3.10;2.87;;;19.00;78.80;;;;;;5026119;28;20463;-45
2021/08/21 06:25:23;;;;;;;5.27;3.43;;;19.00;78.90;;;;;;5027010;28;20833;-45
2021/08/21 06:27:51;;;;;;;4.30;3.10;;;19.10;78.60;;;;;;5025107;28;20487;-44
2021/08/21 06:30:19;;;;;;;3.27;2.90;;;19.10;78.60;;;;;;5023185;28;20495;-45
2021/08/21 06:32:46;;;;;;;3.83;3.43;;;19.20;78.50;;;;;;5026449;28;20496;-45
2021/08/21 06:35:13;;;;;;;3.07;2.80;;;19.40;78.00;;;;;;5026891;28;20452;-45
2021/08/21 06:37:40;;;;;;;4.70;3.20;;;19.40;77.40;;;;;;5026479;28;20887;-45
2021/08/21 06:40:07;;;;;;;8.03;2.90;;;19.50;77.30;;;;;;5027145;28;20448;-45
2021/08/21 06:42:34;;;;;;;3.20;2.70;;;19.50;77.20;;;;;;5026278;28;20455;-45
2021/08/21 06:45:01;;;;;;;4.20;3.27;;;19.60;77.40;;;;;;5026141;28;20971;-45
2021/08/21 06:47:27;;;;;;;5.10;3.00;;;19.70;77.30;;;;;;5027521;28;20465;-45
2021/08/21 06:49:54;;;;;;;3.30;2.97;;;19.80;76.90;;;;;;5027869;28;20585;-45
2021/08/21 06:52:21;;;;;;;2.63;2.43;;;19.90;76.60;;;;;;5023148;28;20950;-45
2021/08/21 06:54:47;;;;;;;4.53;2.43;;;19.90;76.50;;;;;;5026450;28;20455;-45
2021/08/21 06:57:14;;;;;;;3.40;3.10;;;20.00;76.40;;;;;;5024690;28;20463;-45
2021/08/21 06:59:41;;;;;;;2.80;2.10;;;20.10;76.20;;;;;;5024641;28;20463;-43
2021/08/21 07:02:08;;;;;;;2.57;2.37;;;20.10;76.00;;;;;;5026612;28;21160;-44
2021/08/21 07:04:34;;;;;;;2.50;2.30;;;20.10;75.90;;;;;;5024128;28;20546;-44
2021/08/21 07:07:02;;;;;;;3.93;2.27;;;20.20;75.90;;;;;;5024573;28;20822;-44
2021/08/21 07:09:29;;;;;;;4.00;2.77;;;20.20;75.80;;;;;;5026501;28;20570;-45
2021/08/21 07:11:56;;;;;;;5.17;2.70;;;20.30;75.00;;;;;;5025215;28;21043;-45
2021/08/21 07:14:23;;;;;;;6.10;3.43;;;20.30;74.70;;;;;;5025371;28;20458;-45
2021/08/21 07:16:49;;;;;;;3.83;2.70;;;20.30;74.70;;;;;;5025147;28;20563;-45
2021/08/21 07:19:16;;;;;;;2.93;2.60;;;20.30;74.80;;;;;;5022937;28;20459;-45
2021/08/21 07:21:43;;;;;;;3.90;3.00;;;20.40;74.10;;;;;;5026944;28;20558;-44
2021/08/21 07:24:10;;;;;;;3.30;3.00;;;20.50;74.10;;;;;;5026447;28;20462;-44
2021/08/21 07:26:37;;;;;;;3.47;2.90;;;20.60;73.90;;;;;;5023622;28;20469;-44
2021/08/21 07:29:07;;;;;;;3.03;2.73;;;20.60;73.80;;;;;;5023112;28;20848;-44
2021/08/21 07:31:33;;;;;;;3.90;2.73;;;20.70;74.10;;;;;;5023805;28;20451;-44
2021/08/21 07:34:01;;;;;;;3.33;3.03;;;20.90;73.50;;;;;;5025735;28;20490;-44
2021/08/21 07:36:27;;;;;;;2.90;2.60;;;21.00;73.10;;;;;;5024955;28;20459;-44
2021/08/21 07:38:54;;;;;;;2.50;2.27;;;21.10;72.90;;;;;;5025322;28;20473;-44
2021/08/21 07:41:21;;;;;;;2.40;2.20;;;21.30;72.80;;;;;;5024706;28;20452;-44
2021/08/21 07:43:48;;;;;;;4.53;2.50;;;21.40;72.50;;;;;;5025020;28;20459;-44
2021/08/21 07:46:15;;;;;;;2.07;1.87;;;21.60;72.10;;;;;;5025854;28;20459;-44
2021/08/21 07:48:41;;;;;;;2.60;2.13;;;21.70;71.50;;;;;;5026213;28;20533;-45
2021/08/21 07:51:08;;;;;;;3.00;2.57;;;21.90;70.30;;;;;;5029040;28;20455;-45
2021/08/21 07:53:35;;;;;;;3.50;2.60;;;22.10;68.70;;;;;;5025810;28;20494;-45
2021/08/21 07:56:08;;;;;;;3.97;2.80;;;22.30;67.80;;;;;;5026884;28;20455;-45
2021/08/21 07:58:35;;;;;;;2.80;2.47;;;22.50;67.30;;;;;;5026238;28;20974;-46
2021/08/21 08:01:02;;;;;;;4.43;3.00;;;22.60;66.50;;;;;;5024632;28;20451;-45
2021/08/21 08:03:29;;;;;;;3.07;2.80;;;22.80;66.60;;;;;;5027023;28;20471;-45
2021/08/21 08:05:56;;;;;;;4.97;2.77;;;22.90;66.90;;;;;;5028781;28;20457;-45
2021/08/21 08:08:23;;;;;;;3.23;2.80;;;23.10;66.80;;;;;;5026588;28;20479;-45
2021/08/21 08:10:51;;;;;;;3.30;2.20;;;23.20;66.30;;;;;;5026815;28;20554;-45
2021/08/21 08:13:18;;;;;;;6.60;3.80;;;23.40;65.80;;;;;;5028714;28;20496;-45
2021/08/21 08:15:45;;;;;;;5.00;3.80;;;23.50;65.60;;;;;;5024120;28;20467;-45
2021/08/21 08:18:12;;;;;;;3.07;2.60;;;23.70;65.10;;;;;;5028360;28;20454;-45
2021/08/21 08:20:39;;;;;;;5.77;2.80;;;23.90;63.80;;;;;;5028156;28;20467;-45
2021/08/21 08:23:06;;;;;;;4.27;3.00;;;24.00;63.70;;;;;;5024785;28;21392;-45
2021/08/21 08:25:33;;;;;;;5.77;3.53;;;24.20;63.50;;;;;;5027056;28;20446;-45
2021/08/21 08:28:00;;;;;;;3.57;3.27;;;24.30;62.60;;;;;;5029614;28;20494;-45
2021/08/21 08:30:27;;;;;;;4.10;3.33;;;24.50;61.80;;;;;;5027044;28;20486;-45
2021/08/21 08:32:54;;;;;;;4.10;2.90;;;24.70;61.30;;;;;;5026783;28;20467;-45
2021/08/21 08:35:23;;;;;;;4.43;3.83;;;24.80;61.10;;;;;;5028901;28;20450;-45
2021/08/21 08:37:50;;;;;;;4.10;3.70;;;25.00;60.90;;;;;;5027088;28;20834;-45
2021/08/21 08:40:22;;;;;;;4.00;3.10;;;25.10;60.40;;;;;;5026512;28;20458;-45
2021/08/21 08:42:49;;;;;;;6.97;3.40;;;25.30;60.20;;;;;;5028168;28;20465;-45
2021/08/21 08:45:16;;;;;;;4.57;3.90;;;25.50;58.90;;;;;;5030422;28;20455;-45
2021/08/21 08:47:44;;;;;;;4.90;3.80;;;25.70;57.80;;;;;;5032698;28;20477;-45
2021/08/21 08:50:13;;;;;;;15.17;4.57;;;25.80;57.70;;;;;;5029023;28;20485;-45
2021/08/21 08:52:40;;;;;;;11.97;5.13;;;26.00;57.20;;;;;;5031864;28;20950;-45
2021/08/21 08:55:09;;;;;;;8.93;4.83;;;26.20;56.80;;;;;;5029576;28;20466;-45
2021/08/21 08:57:41;;;;;;;7.40;3.70;;;26.30;56.60;;;;;;5030174;28;20458;-45
2021/08/21 09:00:14;;;;;;;4.60;4.00;;;26.50;56.60;;;;;;5029269;28;21223;-45
2021/08/21 09:02:46;;;;;;;6.17;3.90;;;26.70;54.10;;;;;;5025374;28;20455;-46
2021/08/21 09:05:15;;;;;;;6.37;4.03;;;26.90;53.40;;;;;;5028819;28;20457;-47
2021/08/21 09:07:48;;;;;;;18.63;6.23;;;27.20;53.20;;;;;;5026399;28;20507;-51
2021/08/21 09:10:19;;;;;;;9.73;4.23;;;27.40;52.60;;;;;;5027022;28;20486;-51
2021/08/21 09:13:07;;;;;;;6.80;4.20;;;27.60;52.70;;;;;;5028220;28;20959;-51
2021/08/21 09:15:37;;;;;;;5.83;4.00;;;27.90;52.70;;;;;;5029427;28;20473;-49
2021/08/21 09:18:12;;;;;;;5.70;3.93;;;28.20;51.80;;;;;;5027589;28;20200;-49
2021/08/21 09:20:48;;;;;;;19.40;5.20;;;28.40;51.50;;;;;;5027158;28;20454;-49
2021/08/21 09:23:21;;;;;;;12.43;4.50;;;28.70;51.30;;;;;;5026254;28;20210;-49
2021/08/21 09:25:50;;;;;;;5.30;3.70;;;29.00;50.30;;;;;;5029393;28;20212;-50
2021/08/21 09:28:23;;;;;;;15.40;3.87;;;29.20;49.60;;;;;;5012814;28;20327;-49
2021/08/21 09:31:02;;;;;;;6.13;3.47;;;29.40;49.30;;;;;;5028092;28;20240;-50
2021/08/21 14:31:57;;;;;;;4.97;4.07;;;26.70;56.30;;;;;;5094909;27;20566;-45
2021/08/21 14:34:25;;;;;;;4.80;4.20;;;27.70;52.40;;;;;;5085547;28;20206;-47
2021/08/21 14:36:51;;;;;;;5.43;3.80;;;27.80;51.20;;;;;;5084618;28;20805;-44
2021/08/21 14:39:18;;;;;;;8.20;4.60;;;27.90;51.10;;;;;;5084491;28;20240;-44
2021/08/21 14:41:45;;;;;;;4.60;3.80;;;28.00;50.90;;;;;;5082066;28;20224;-43
2021/08/21 14:44:11;;;;;;;6.40;4.70;;;28.00;50.80;;;;;;5085708;28;20574;-43
2021/08/21 14:46:38;;;;;;;5.90;4.77;;;28.10;50.80;;;;;;5079579;28;20807;-43
2021/08/21 14:49:05;;;;;;;7.70;4.60;;;28.10;50.80;;;;;;5082812;28;20199;-43
2021/08/21 14:51:32;;;;;;;4.40;4.00;;;28.10;50.60;;;;;;5083416;28;20301;-43
2021/08/21 14:53:59;;;;;;;5.00;4.27;;;28.10;50.50;;;;;;5083634;28;20289;-43
2021/08/21 14:56:28;;;;;;;4.67;3.63;;;28.10;50.80;;;;;;5083203;28;20210;-43
2021/08/21 14:58:55;;;;;;;4.93;4.43;;;28.20;50.80;;;;;;5084646;28;20202;-44
2021/08/21 15:01:22;;;;;;;5.43;3.87;;;28.10;50.80;;;;;;5083719;28;20237;-43
2021/08/21 15:03:49;;;;;;;7.83;4.43;;;28.10;50.80;;;;;;5082470;28;20698;-44
2021/08/21 15:06:16;;;;;;;12.20;4.40;;;28.20;50.80;;;;;;5086302;28;20198;-43
2021/08/21 15:08:43;;;;;;;4.60;4.17;;;28.20;50.80;;;;;;5084690;28;20210;-43
2021/08/21 15:11:10;;;;;;;4.70;4.10;;;28.20;50.80;;;;;;5112309;28;20213;-43
2021/08/21 15:13:37;;;;;;;4.33;3.93;;;28.20;50.60;;;;;;5085091;28;20297;-43
2021/08/21 15:16:06;;;;;;;5.30;4.80;;;28.20;50.90;;;;;;5084069;28;20678;-43
2021/08/21 15:18:34;;;;;;;3.67;3.37;;;28.20;51.50;;;;;;5083188;28;20202;-43
2021/08/21 15:21:02;;;;;;;5.77;4.93;;;28.20;52.10;;;;;;5104288;28;20704;-43
2021/08/21 15:23:30;;;;;;;7.73;5.23;;;28.20;51.20;;;;;;5064706;28;20204;-43
2021/08/21 15:25:57;;;;;;;5.60;4.90;;;28.20;50.70;;;;;;5060788;28;20428;-43
2021/08/21 15:28:29;;;;;;;5.70;4.17;;;28.20;50.00;;;;;;5066694;28;20210;-44
2021/08/21 15:30:57;;;;;;;6.77;5.00;;;28.20;49.90;;;;;;5059428;28;20210;-44
2021/08/21 15:33:25;;;;;;;6.27;4.90;;;28.20;49.80;;;;;;5047592;28;20206;-43
2021/08/21 15:35:52;;;;;;;7.30;5.10;;;28.20;49.70;;;;;;5050468;28;20215;-47
2021/08/21 15:38:22;;;;;;;5.13;4.60;;;28.20;49.90;;;;;;5049523;28;20199;-47
2021/08/21 15:40:52;;;;;;;5.73;4.80;;;28.30;49.40;;;;;;5050419;28;20403;-47
2021/08/21 15:43:19;;;;;;;28.73;7.20;;;28.20;49.20;;;;;;5049106;28;20206;-47
2021/08/21 15:45:46;;;;;;;69.47;11.37;;;28.20;49.20;;;;;;5051952;28;20317;-47
2021/08/21 15:48:18;;;;;;;13.00;5.37;;;28.20;49.70;;;;;;5047532;28;20219;-47
2021/08/21 15:50:46;;;;;;;4.37;3.97;;;28.20;49.60;;;;;;5045674;28;20209;-47
2021/08/21 15:53:13;;;;;;;7.67;4.80;;;28.20;50.00;;;;;;5049185;28;20213;-47
2021/08/21 15:55:40;;;;;;;6.83;4.73;;;28.20;50.10;;;;;;5048442;28;20204;-47
2021/08/21 15:58:07;;;;;;;7.00;4.40;;;28.10;49.80;;;;;;5045533;28;20207;-47
2021/08/21 16:00:33;;;;;;;7.07;4.63;;;28.10;49.60;;;;;;5051371;28;20238;-47
2021/08/21 16:03:00;;;;;;;6.00;4.20;;;28.10;49.60;;;;;;5048560;28;20246;-47
2021/08/21 16:05:27;;;;;;;4.93;4.23;;;28.00;49.70;;;;;;5047409;28;20204;-47
2021/08/21 16:07:54;;;;;;;5.80;5.00;;;28.00;50.20;;;;;;5049257;28;20569;-47
2021/08/21 16:10:23;;;;;;;5.33;4.83;;;28.00;50.00;;;;;;5051817;28;20207;-47
2021/08/21 16:12:49;;;;;;;6.90;4.87;;;28.00;49.50;;;;;;5063663;28;20438;-47
2021/08/21 16:15:17;;;;;;;7.43;4.57;;;28.00;49.30;;;;;;5047430;28;20465;-47
2021/08/21 16:17:44;;;;;;;5.30;4.07;;;28.00;49.20;;;;;;5052288;28;20212;-47
2021/08/21 16:20:11;;;;;;;4.17;3.87;;;27.90;49.40;;;;;;5054659;28;20220;-47
2021/08/21 16:22:38;;;;;;;5.10;4.47;;;27.90;49.60;;;;;;5054408;28;20607;-47
2021/08/21 16:25:06;;;;;;;8.93;4.43;;;27.90;49.70;;;;;;5050829;28;20225;-47
2021/08/21 16:27:33;;;;;;;7.30;4.27;;;27.90;49.80;;;;;;5049734;28;20198;-47
2021/08/21 16:30:00;;;;;;;4.80;4.40;;;27.90;49.70;;;;;;5031629;28;20672;-47
2021/08/21 16:32:27;;;;;;;4.53;4.13;;;27.80;49.50;;;;;;5047795;28;20214;-47
2021/08/21 16:34:56;;;;;;;4.33;3.93;;;27.80;49.50;;;;;;5046922;28;20302;-47
2021/08/21 16:37:23;;;;;;;4.90;4.40;;;27.80;49.80;;;;;;5065400;28;20231;-47
2021/08/21 16:39:50;;;;;;;5.10;4.40;;;27.80;49.80;;;;;;5063886;28;20231;-47
2021/08/21 16:42:17;;;;;;;5.20;4.63;;;27.70;49.70;;;;;;5048587;28;20217;-47
2021/08/21 16:44:43;;;;;;;11.10;7.90;;;27.70;49.40;;;;;;5049008;28;20973;-47
2021/08/21 16:47:10;;;;;;;5.33;4.77;;;27.70;50.40;;;;;;5046193;28;20465;-47
2021/08/21 16:49:37;;;;;;;4.30;3.90;;;27.60;51.20;;;;;;5047771;28;20950;-47
2021/08/21 16:52:04;;;;;;;4.73;4.23;;;27.60;50.80;;;;;;5060401;28;20548;-47
2021/08/21 16:54:31;;;;;;;4.17;3.77;;;27.50;50.90;;;;;;5050149;28;20216;-47
2021/08/21 16:56:58;;;;;;;3.90;3.50;;;27.40;51.20;;;;;;5045530;28;21060;-47
2021/08/21 16:59:24;;;;;;;3.77;3.47;;;27.40;51.60;;;;;;5051659;28;20548;-47
2021/08/21 17:01:51;;;;;;;4.20;3.60;;;27.30;51.20;;;;;;5048021;28;20237;-47
2021/08/21 17:04:18;;;;;;;6.37;3.63;;;27.20;50.70;;;;;;5046085;28;20469;-47
2021/08/21 17:06:45;;;;;;;4.27;3.37;;;27.10;50.20;;;;;;5050180;28;20538;-47
2021/08/21 17:09:12;;;;;;;4.83;3.80;;;27.10;50.20;;;;;;5056925;28;20199;-49
2021/08/21 17:11:39;;;;;;;3.80;3.50;;;27.00;50.40;;;;;;5044877;28;20528;-47
2021/08/21 17:14:05;;;;;;;4.70;4.30;;;27.00;50.50;;;;;;5046871;28;20480;-49
2021/08/21 17:16:32;;;;;;;4.57;3.87;;;26.90;50.70;;;;;;5046658;28;20955;-49
2021/08/21 17:19:00;;;;;;;6.67;4.30;;;26.90;51.80;;;;;;5045133;28;20507;-49
2021/08/21 17:21:26;;;;;;;6.30;5.70;;;26.90;52.50;;;;;;5049751;28;20914;-49
2021/08/21 17:23:53;;;;;;;6.00;4.90;;;26.80;52.80;;;;;;5048847;28;20450;-49
2021/08/21 17:26:20;;;;;;;8.83;7.93;;;26.80;53.00;;;;;;5047850;28;20434;-49
2021/08/21 17:28:47;;;;;;;8.83;7.50;;;26.70;53.10;;;;;;5048815;28;20454;-49
2021/08/21 17:31:14;;;;;;;9.20;7.70;;;26.70;53.00;;;;;;5044018;28;20485;-49
2021/08/21 17:33:44;;;;;;;8.53;7.60;;;26.60;53.20;;;;;;5049882;28;20492;-49
2021/08/21 17:36:14;;;;;;;7.60;5.30;;;26.60;53.40;;;;;;5047361;28;20564;-49
2021/08/21 17:38:41;;;;;;;8.37;5.30;;;26.50;53.50;;;;;;5046901;28;20834;-49
2021/08/21 17:41:08;;;;;;;5.13;4.47;;;26.50;53.60;;;;;;5045904;28;21080;-49
2021/08/21 17:43:35;;;;;;;5.87;5.13;;;26.40;53.80;;;;;;5046802;28;20449;-49
2021/08/21 17:46:05;;;;;;;34.17;23.53;;;26.30;53.90;;;;;;5076932;28;20445;-49